Mairead — WDB6509 — position and weather

sailwx.info

Track history (hours):
 
Tides and Currents Weather Stations Pressure Air Temp Water Temp Dewpoint Dewpoint Depression Visibility Wind Speed Wind Dir Waves Ship Positions

Mairead

Owner: Herr, Charles A, Escondido, CA. More information available from US FCC via Universal Licensing System and Coast Guard Vessel Documentation Center.

Last reported at 2017-Dec-12 00:21 UTC. Time now 2017-Dec-18 06:49 UTC.
Position N 32°46' W 117°20'.

Length 16 m.

Type: Pleasure craft. MMSI: 366925650.

Date/timePositionNaut miles runAvg speedWind from/ knotsBaromVisibWave heightAir tempDewpointWater temp
2017-Dec-12 00:21N 32°46' W 117°20'3 7.7
2017-Dec-12 00:00N 32°49' W 117°21'4 8.0
2017-Dec-11 23:29N 32°53' W 117°22'4 8.1
2017-Dec-11 22:57N 32°57' W 117°24'4 8.2
2017-Dec-11 22:30N 33°00' W 117°25'5 8.5
2017-Dec-11 21:57N 33°05' W 117°27'101 7.5
2017-Dec-11 08:23N 34°04' W 119°06'3 6.9
2017-Dec-11 07:57N 34°05' W 119°09'3 7.0
2017-Dec-11 07:29N 34°07' W 119°12'4 7.5
2017-Dec-11 07:00N 34°09' W 119°16'4 7.7
2017-Dec-11 06:30N 34°11' W 119°20'5 7.7
2017-Dec-11 05:52N 34°13' W 119°25'4 8.0
2017-Dec-11 05:25N 34°15' W 119°29'5 8.3
2017-Dec-11 04:49N 34°17' W 119°35'3 8.2
2017-Dec-11 04:25N 34°18' W 119°38'7 8.2
2017-Dec-11 03:35N 34°21' W 119°46'1 8.3
2017-Dec-11 03:30N 34°21' W 119°47'5 7.9
2017-Dec-11 02:55N 34°22' W 119°52'4 7.6
2017-Dec-11 02:24N 34°23' W 119°57'3 7.2
2017-Dec-11 01:59N 34°24' W 120°00'5 7.6
2017-Dec-11 01:18N 34°25' W 120°06'4 7.7
2017-Dec-11 00:49N 34°25' W 120°11'2 7.7
2017-Dec-11 00:30N 34°25' W 120°14'4 7.1
2017-Dec-11 00:00N 34°25' W 120°18'4 7.8
2017-Dec-10 23:30N 34°26' W 120°23'4 8.0
2017-Dec-10 23:00N 34°26' W 120°28'7 7.7
2017-Dec-10 22:05N 34°30' W 120°35'1 7.8
2017-Dec-10 22:00N 34°30' W 120°36'13 7.1
2017-Dec-10 20:12N 34°42' W 120°43'2 7.5
2017-Dec-10 20:00N 34°43' W 120°44'4 7.5
2017-Dec-10 19:30N 34°47' W 120°45'4 7.4
2017-Dec-10 19:00N 34°50' W 120°47'4 7.3
2017-Dec-10 18:30N 34°54' W 120°48'4 7.2
2017-Dec-10 18:00N 34°57' W 120°49'81 7.3
2017-Dec-10 06:54N 36°06' W 121°42'4 7.6
2017-Dec-10 06:24N 36°09' W 121°45'3 7.6
2017-Dec-10 06:00N 36°11' W 121°48'4 7.5
2017-Dec-10 05:30N 36°13' W 121°51'4 7.6
2017-Dec-10 05:00N 36°16' W 121°54'4 7.6
2017-Dec-10 04:30N 36°19' W 121°57'4 7.9
2017-Dec-10 04:00N 36°23' W 121°57'4 8.1
2017-Dec-10 03:30N 36°27' W 121°58'4 8.0
2017-Dec-10 02:59N 36°31' W 121°59'  
2017-Dec-04 10:07N 38°20' W 123°03'0 0.0
2017-Dec-04 09:55N 38°20' W 123°03'0 0.0
2017-Dec-04 09:25N 38°20' W 123°03'0 0.0
2017-Dec-04 08:58N 38°20' W 123°03'0 0.0
2017-Dec-04 08:25N 38°20' W 123°03'0 0.0
2017-Dec-04 07:58N 38°20' W 123°03'0 0.0
2017-Dec-04 07:22N 38°20' W 123°03'0 0.0
2017-Dec-04 06:46N 38°20' W 123°03'0 0.0
2017-Dec-04 06:25N 38°20' W 123°03'0 0.0
2017-Dec-04 05:58N 38°20' W 123°03'0 0.0
2017-Dec-04 05:28N 38°20' W 123°03'0 0.0
2017-Dec-04 04:49N 38°20' W 123°03'0 0.0
2017-Dec-04 04:28N 38°20' W 123°03'0 0.0
2017-Dec-04 03:58N 38°20' W 123°03'0 0.0
2017-Dec-04 03:25N 38°20' W 123°03'0 0.0
2017-Dec-04 02:55N 38°20' W 123°03'0 0.0
2017-Dec-04 02:19N 38°20' W 123°03'0 0.0
2017-Dec-04 01:55N 38°20' W 123°03'0 0.0
2017-Dec-04 01:25N 38°20' W 123°03'0 0.0
2017-Dec-04 00:55N 38°20' W 123°03'0 0.0
2017-Dec-04 00:25N 38°20' W 123°03'0 0.0
2017-Dec-03 23:55N 38°20' W 123°03'0 0.0
2017-Dec-03 23:25N 38°20' W 123°03'0 0.0
2017-Dec-03 22:55N 38°20' W 123°03'0 0.0
2017-Dec-03 22:25N 38°20' W 123°03'0 0.0
2017-Dec-03 21:55N 38°20' W 123°03'0 0.0
2017-Dec-03 21:28N 38°20' W 123°03'0 0.0
2017-Dec-03 20:55N 38°20' W 123°03'0 0.0
2017-Dec-03 20:28N 38°20' W 123°03'0 0.0
2017-Dec-03 19:55N 38°20' W 123°03'0 0.0
2017-Dec-03 19:28N 38°20' W 123°03'0 0.0
2017-Dec-03 18:55N 38°20' W 123°03'0 0.0
2017-Dec-03 18:25N 38°20' W 123°03'0 0.0
2017-Dec-03 17:55N 38°20' W 123°03'0 0.0
2017-Dec-03 17:25N 38°20' W 123°03'0 0.0
2017-Dec-03 16:58N 38°20' W 123°03'0 0.0
2017-Dec-03 16:28N 38°20' W 123°03'0 0.0
2017-Dec-03 15:58N 38°20' W 123°03'0 0.0
2017-Dec-03 15:28N 38°20' W 123°03'0 0.0
2017-Dec-03 14:58N 38°20' W 123°03'0 0.0
2017-Dec-03 14:25N 38°20' W 123°03'0 0.0
2017-Dec-03 13:55N 38°20' W 123°03'0 0.0
2017-Dec-03 13:25N 38°20' W 123°03'0 0.0
2017-Dec-03 12:55N 38°20' W 123°03'0 0.0
2017-Dec-03 12:25N 38°20' W 123°03'0 0.0
2017-Dec-03 11:55N 38°20' W 123°03'0 0.0
2017-Dec-03 11:25N 38°20' W 123°03'0 0.0
2017-Dec-03 10:55N 38°20' W 123°03'0 0.0
2017-Dec-03 10:25N 38°20' W 123°03'0 0.0
2017-Dec-03 09:52N 38°20' W 123°03'0 0.0
2017-Dec-03 09:25N 38°20' W 123°03'0 0.0
2017-Dec-03 08:55N 38°20' W 123°03'0 0.0
2017-Dec-03 08:25N 38°20' W 123°03'0 0.0
2017-Dec-03 07:55N 38°20' W 123°03'0 0.0
2017-Dec-03 07:25N 38°20' W 123°03'0 0.0
2017-Dec-03 06:49N 38°20' W 123°03'0 0.0
2017-Dec-03 06:19N 38°20' W 123°03'0 0.0
2017-Dec-03 05:55N 38°20' W 123°03'0 0.0
2017-Dec-03 05:25N 38°20' W 123°03'0 0.0
2017-Dec-03 04:55N 38°20' W 123°03'0 0.0
2017-Dec-03 04:25N 38°20' W 123°03'0 0.0
2017-Dec-03 03:58N 38°20' W 123°03'0 0.0
2017-Dec-03 03:28N 38°20' W 123°03'0 0.0
2017-Dec-03 02:58N 38°20' W 123°03'0 0.0
2017-Dec-03 02:22N 38°20' W 123°03'0 0.0
2017-Dec-03 01:58N 38°20' W 123°03'0 0.0
2017-Dec-03 01:28N 38°20' W 123°03'0 0.0
2017-Dec-03 00:58N 38°20' W 123°03'0 0.0
2017-Dec-03 00:28N 38°20' W 123°03'0 0.0
2017-Dec-02 23:58N 38°20' W 123°03'0 0.0
2017-Dec-02 23:28N 38°20' W 123°03'0 0.0
2017-Dec-02 22:58N 38°20' W 123°03'0 0.0
2017-Dec-02 22:28N 38°20' W 123°03'0 0.0
2017-Dec-02 21:58N 38°20' W 123°03'0 0.0
2017-Dec-02 21:22N 38°20' W 123°03'0 0.0
2017-Dec-02 20:46N 38°20' W 123°03'0 0.0
2017-Dec-02 20:28N 38°20' W 123°03'0 0.0
2017-Dec-02 19:58N 38°20' W 123°03'0 0.0
2017-Dec-02 19:28N 38°20' W 123°03'0 0.0
2017-Dec-02 18:58N 38°20' W 123°03'0 0.0
2017-Dec-02 18:28N 38°20' W 123°03'0 0.0
2017-Dec-02 17:58N 38°20' W 123°03'0 0.0
2017-Dec-02 17:28N 38°20' W 123°03'0 0.0
2017-Dec-02 16:58N 38°20' W 123°03'0 0.0
2017-Dec-02 16:28N 38°20' W 123°03'0 0.0
2017-Dec-02 15:52N 38°20' W 123°03'0 0.0
2017-Dec-02 15:28N 38°20' W 123°03'0 0.0
2017-Dec-02 14:58N 38°20' W 123°03'0 0.0
2017-Dec-02 14:28N 38°20' W 123°03'0 0.0
2017-Dec-02 13:55N 38°20' W 123°03'0 0.0
2017-Dec-02 13:19N 38°20' W 123°03'0 0.0
2017-Dec-02 12:55N 38°20' W 123°03'0 0.0
2017-Dec-02 12:25N 38°20' W 123°03'0 0.0
2017-Dec-02 11:46N 38°20' W 123°03'0 0.0
2017-Dec-02 11:25N 38°20' W 123°03'0 0.0
2017-Dec-02 10:55N 38°20' W 123°03'0 0.0
2017-Dec-02 10:25N 38°20' W 123°03'0 0.0
2017-Dec-02 09:49N 38°20' W 123°03'0 0.0
2017-Dec-02 09:25N 38°20' W 123°03'0 0.0
2017-Dec-02 08:55N 38°20' W 123°03'0 0.0
2017-Dec-02 08:25N 38°20' W 123°03'0 0.0
2017-Dec-02 07:49N 38°20' W 123°03'0 0.0
2017-Dec-02 07:25N 38°20' W 123°03'0 0.0
2017-Dec-02 06:55N 38°20' W 123°03'0 0.0
2017-Dec-02 06:25N 38°20' W 123°03'0 0.0
2017-Dec-02 05:55N 38°20' W 123°03'0 0.0
2017-Dec-02 05:25N 38°20' W 123°03'0 0.0
2017-Dec-02 04:55N 38°20' W 123°03'0 0.0
2017-Dec-02 04:25N 38°20' W 123°03'0 0.0
2017-Dec-02 03:55N 38°20' W 123°03'0 0.0
2017-Dec-02 03:25N 38°20' W 123°03'0 0.0
2017-Dec-02 02:55N 38°20' W 123°03'0 0.0
2017-Dec-02 02:25N 38°20' W 123°03'0 0.0
2017-Dec-02 01:43N 38°20' W 123°03'0 0.0
2017-Dec-02 01:25N 38°20' W 123°03'0 0.0
2017-Dec-02 00:55N 38°20' W 123°03'0 0.0
2017-Dec-02 00:25N 38°20' W 123°03'  
Track history (hours):
 
Tides and Currents Weather Stations Pressure Air Temp Water Temp Dewpoint Dewpoint Depression Visibility Wind Speed Wind Dir Waves Ship Positions

Mairead

Owner: Herr, Charles A, Escondido, CA. More information available from US FCC via Universal Licensing System and Coast Guard Vessel Documentation Center.

Last reported at 2017-Dec-12 00:21 UTC. Time now 2017-Dec-18 06:49 UTC.
Position N 32°46' W 117°20'.

Length 16 m.

Type: Pleasure craft. MMSI: 366925650.

Date/timePositionNaut miles runAvg speedWind from/ knotsBaromVisibWave heightAir tempDewpointWater temp
2017-Dec-12 00:21N 32°46' W 117°20'3 7.7
2017-Dec-12 00:00N 32°49' W 117°21'4 8.0
2017-Dec-11 23:29N 32°53' W 117°22'4 8.1
2017-Dec-11 22:57N 32°57' W 117°24'4 8.2
2017-Dec-11 22:30N 33°00' W 117°25'5 8.5
2017-Dec-11 21:57N 33°05' W 117°27'101 7.5
2017-Dec-11 08:23N 34°04' W 119°06'3 6.9
2017-Dec-11 07:57N 34°05' W 119°09'3 7.0
2017-Dec-11 07:29N 34°07' W 119°12'4 7.5
2017-Dec-11 07:00N 34°09' W 119°16'4 7.7
2017-Dec-11 06:30N 34°11' W 119°20'5 7.7
2017-Dec-11 05:52N 34°13' W 119°25'4 8.0
2017-Dec-11 05:25N 34°15' W 119°29'5 8.3
2017-Dec-11 04:49N 34°17' W 119°35'3 8.2
2017-Dec-11 04:25N 34°18' W 119°38'7 8.2
2017-Dec-11 03:35N 34°21' W 119°46'1 8.3
2017-Dec-11 03:30N 34°21' W 119°47'5 7.9
2017-Dec-11 02:55N 34°22' W 119°52'4 7.6
2017-Dec-11 02:24N 34°23' W 119°57'3 7.2
2017-Dec-11 01:59N 34°24' W 120°00'5 7.6
2017-Dec-11 01:18N 34°25' W 120°06'4 7.7
2017-Dec-11 00:49N 34°25' W 120°11'2 7.7
2017-Dec-11 00:30N 34°25' W 120°14'4 7.1
2017-Dec-11 00:00N 34°25' W 120°18'4 7.8
2017-Dec-10 23:30N 34°26' W 120°23'4 8.0
2017-Dec-10 23:00N 34°26' W 120°28'7 7.7
2017-Dec-10 22:05N 34°30' W 120°35'1 7.8
2017-Dec-10 22:00N 34°30' W 120°36'13 7.1
2017-Dec-10 20:12N 34°42' W 120°43'2 7.5
2017-Dec-10 20:00N 34°43' W 120°44'4 7.5
2017-Dec-10 19:30N 34°47' W 120°45'4 7.4
2017-Dec-10 19:00N 34°50' W 120°47'4 7.3
2017-Dec-10 18:30N 34°54' W 120°48'4 7.2
2017-Dec-10 18:00N 34°57' W 120°49'81 7.3
2017-Dec-10 06:54N 36°06' W 121°42'4 7.6
2017-Dec-10 06:24N 36°09' W 121°45'3 7.6
2017-Dec-10 06:00N 36°11' W 121°48'4 7.5
2017-Dec-10 05:30N 36°13' W 121°51'4 7.6
2017-Dec-10 05:00N 36°16' W 121°54'4 7.6
2017-Dec-10 04:30N 36°19' W 121°57'4 7.9
2017-Dec-10 04:00N 36°23' W 121°57'4 8.1
2017-Dec-10 03:30N 36°27' W 121°58'4 8.0
2017-Dec-10 02:59N 36°31' W 121°59'  
2017-Dec-04 10:07N 38°20' W 123°03'0 0.0
2017-Dec-04 09:55N 38°20' W 123°03'0 0.0
2017-Dec-04 09:25N 38°20' W 123°03'0 0.0
2017-Dec-04 08:58N 38°20' W 123°03'0 0.0
2017-Dec-04 08:25N 38°20' W 123°03'0 0.0
2017-Dec-04 07:58N 38°20' W 123°03'0 0.0
2017-Dec-04 07:22N 38°20' W 123°03'0 0.0
2017-Dec-04 06:46N 38°20' W 123°03'0 0.0
2017-Dec-04 06:25N 38°20' W 123°03'0 0.0
2017-Dec-04 05:58N 38°20' W 123°03'0 0.0
2017-Dec-04 05:28N 38°20' W 123°03'0 0.0
2017-Dec-04 04:49N 38°20' W 123°03'0 0.0
2017-Dec-04 04:28N 38°20' W 123°03'0 0.0
2017-Dec-04 03:58N 38°20' W 123°03'0 0.0
2017-Dec-04 03:25N 38°20' W 123°03'0 0.0
2017-Dec-04 02:55N 38°20' W 123°03'0 0.0
2017-Dec-04 02:19N 38°20' W 123°03'0 0.0
2017-Dec-04 01:55N 38°20' W 123°03'0 0.0
2017-Dec-04 01:25N 38°20' W 123°03'0 0.0
2017-Dec-04 00:55N 38°20' W 123°03'0 0.0
2017-Dec-04 00:25N 38°20' W 123°03'0 0.0
2017-Dec-03 23:55N 38°20' W 123°03'0 0.0
2017-Dec-03 23:25N 38°20' W 123°03'0 0.0
2017-Dec-03 22:55N 38°20' W 123°03'0 0.0
2017-Dec-03 22:25N 38°20' W 123°03'0 0.0
2017-Dec-03 21:55N 38°20' W 123°03'0 0.0
2017-Dec-03 21:28N 38°20' W 123°03'0 0.0
2017-Dec-03 20:55N 38°20' W 123°03'0 0.0
2017-Dec-03 20:28N 38°20' W 123°03'0 0.0
2017-Dec-03 19:55N 38°20' W 123°03'0 0.0
2017-Dec-03 19:28N 38°20' W 123°03'0 0.0
2017-Dec-03 18:55N 38°20' W 123°03'0 0.0
2017-Dec-03 18:25N 38°20' W 123°03'0 0.0
2017-Dec-03 17:55N 38°20' W 123°03'0 0.0
2017-Dec-03 17:25N 38°20' W 123°03'0 0.0
2017-Dec-03 16:58N 38°20' W 123°03'0 0.0
2017-Dec-03 16:28N 38°20' W 123°03'0 0.0
2017-Dec-03 15:58N 38°20' W 123°03'0 0.0
2017-Dec-03 15:28N 38°20' W 123°03'0 0.0
2017-Dec-03 14:58N 38°20' W 123°03'0 0.0
2017-Dec-03 14:25N 38°20' W 123°03'0 0.0
2017-Dec-03 13:55N 38°20' W 123°03'0 0.0
2017-Dec-03 13:25N 38°20' W 123°03'0 0.0
2017-Dec-03 12:55N 38°20' W 123°03'0 0.0
2017-Dec-03 12:25N 38°20' W 123°03'0 0.0
2017-Dec-03 11:55N 38°20' W 123°03'0 0.0
2017-Dec-03 11:25N 38°20' W 123°03'0 0.0
2017-Dec-03 10:55N 38°20' W 123°03'0 0.0
2017-Dec-03 10:25N 38°20' W 123°03'0 0.0
2017-Dec-03 09:52N 38°20' W 123°03'0 0.0
2017-Dec-03 09:25N 38°20' W 123°03'0 0.0
2017-Dec-03 08:55N 38°20' W 123°03'0 0.0
2017-Dec-03 08:25N 38°20' W 123°03'0 0.0
2017-Dec-03 07:55N 38°20' W 123°03'0 0.0
2017-Dec-03 07:25N 38°20' W 123°03'0 0.0
2017-Dec-03 06:49N 38°20' W 123°03'0 0.0
2017-Dec-03 06:19N 38°20' W 123°03'0 0.0
2017-Dec-03 05:55N 38°20' W 123°03'0 0.0
2017-Dec-03 05:25N 38°20' W 123°03'0 0.0
2017-Dec-03 04:55N 38°20' W 123°03'0 0.0
2017-Dec-03 04:25N 38°20' W 123°03'0 0.0
2017-Dec-03 03:58N 38°20' W 123°03'0 0.0
2017-Dec-03 03:28N 38°20' W 123°03'0 0.0
2017-Dec-03 02:58N 38°20' W 123°03'0 0.0
2017-Dec-03 02:22N 38°20' W 123°03'0 0.0
2017-Dec-03 01:58N 38°20' W 123°03'0 0.0
2017-Dec-03 01:28N 38°20' W 123°03'0 0.0
2017-Dec-03 00:58N 38°20' W 123°03'0 0.0
2017-Dec-03 00:28N 38°20' W 123°03'0 0.0
2017-Dec-02 23:58N 38°20' W 123°03'0 0.0
2017-Dec-02 23:28N 38°20' W 123°03'0 0.0
2017-Dec-02 22:58N 38°20' W 123°03'0 0.0
2017-Dec-02 22:28N 38°20' W 123°03'0 0.0
2017-Dec-02 21:58N 38°20' W 123°03'0 0.0
2017-Dec-02 21:22N 38°20' W 123°03'0 0.0
2017-Dec-02 20:46N 38°20' W 123°03'0 0.0
2017-Dec-02 20:28N 38°20' W 123°03'0 0.0
2017-Dec-02 19:58N 38°20' W 123°03'0 0.0
2017-Dec-02 19:28N 38°20' W 123°03'0 0.0
2017-Dec-02 18:58N 38°20' W 123°03'0 0.0
2017-Dec-02 18:28N 38°20' W 123°03'0 0.0
2017-Dec-02 17:58N 38°20' W 123°03'0 0.0
2017-Dec-02 17:28N 38°20' W 123°03'0 0.0
2017-Dec-02 16:58N 38°20' W 123°03'0 0.0
2017-Dec-02 16:28N 38°20' W 123°03'0 0.0
2017-Dec-02 15:52N 38°20' W 123°03'0 0.0
2017-Dec-02 15:28N 38°20' W 123°03'0 0.0
2017-Dec-02 14:58N 38°20' W 123°03'0 0.0
2017-Dec-02 14:28N 38°20' W 123°03'0 0.0
2017-Dec-02 13:55N 38°20' W 123°03'0 0.0
2017-Dec-02 13:19N 38°20' W 123°03'0 0.0
2017-Dec-02 12:55N 38°20' W 123°03'0 0.0
2017-Dec-02 12:25N 38°20' W 123°03'0 0.0
2017-Dec-02 11:46N 38°20' W 123°03'0 0.0
2017-Dec-02 11:25N 38°20' W 123°03'0 0.0
2017-Dec-02 10:55N 38°20' W 123°03'0 0.0
2017-Dec-02 10:25N 38°20' W 123°03'0 0.0
2017-Dec-02 09:49N 38°20' W 123°03'0 0.0
2017-Dec-02 09:25N 38°20' W 123°03'0 0.0
2017-Dec-02 08:55N 38°20' W 123°03'0 0.0
2017-Dec-02 08:25N 38°20' W 123°03'0 0.0
2017-Dec-02 07:49N 38°20' W 123°03'0 0.0
2017-Dec-02 07:25N 38°20' W 123°03'0 0.0
2017-Dec-02 06:55N 38°20' W 123°03'0 0.0
2017-Dec-02 06:25N 38°20' W 123°03'0 0.0
2017-Dec-02 05:55N 38°20' W 123°03'0 0.0
2017-Dec-02 05:25N 38°20' W 123°03'0 0.0
2017-Dec-02 04:55N 38°20' W 123°03'0 0.0
2017-Dec-02 04:25N 38°20' W 123°03'0 0.0
2017-Dec-02 03:55N 38°20' W 123°03'0 0.0
2017-Dec-02 03:25N 38°20' W 123°03'0 0.0
2017-Dec-02 02:55N 38°20' W 123°03'0 0.0
2017-Dec-02 02:25N 38°20' W 123°03'0 0.0
2017-Dec-02 01:43N 38°20' W 123°03'0 0.0
2017-Dec-02 01:25N 38°20' W 123°03'0 0.0
2017-Dec-02 00:55N 38°20' W 123°03'0 0.0
2017-Dec-02 00:25N 38°20' W 123°03'  

Dump ship's entire track history